createdAt,value
2023-03-01T00:02:05.861Z,102884.78
2023-03-01T00:04:33.546Z,102883.91
2023-03-01T00:10:13.894Z,102895.25
2023-03-01T00:13:13.082Z,102885.69
2023-03-01T00:15:46.653Z,102893.56
2023-03-01T00:18:14.232Z,102893.56
2023-03-01T00:20:41.436Z,102889.28
2023-03-01T00:23:09.043Z,102888.50
2023-03-01T00:25:44.297Z,102890.19
2023-03-01T00:28:20.956Z,102884.25
2023-03-01T00:30:49.285Z,102878.94
2023-03-01T00:34:00.329Z,102878.03
2023-03-01T00:36:40.996Z,102877.81
2023-03-01T00:40:16.508Z,102881.84
2023-03-01T00:43:16.187Z,102879.94
2023-03-01T00:45:52.725Z,102880.63
2023-03-01T00:48:20.530Z,102873.53
2023-03-01T00:51:13.271Z,102872.66
2023-03-01T00:54:42.276Z,102871.59
2023-03-01T00:57:12.675Z,102872.19
2023-03-01T00:59:51.879Z,102868.56
2023-03-01T01:02:27.978Z,102872.59
2023-03-01T01:05:01.281Z,102867.22
2023-03-01T01:07:30.974Z,102858.56
2023-03-01T01:09:58.837Z,102854.16
2023-03-01T01:12:26.474Z,102851.44
2023-03-01T01:14:54.230Z,102850.22
2023-03-01T01:17:24.601Z,102847.25
2023-03-01T01:19:52.070Z,102845.34
2023-03-01T01:22:19.452Z,102840.06
2023-03-01T01:24:46.907Z,102839.81
2023-03-01T01:27:14.261Z,102838.13
2023-03-01T01:29:43.131Z,102824.97
2023-03-01T01:32:10.691Z,102826.66
2023-03-01T01:34:37.889Z,102821.25
2023-03-01T01:37:09.050Z,102817.78
2023-03-01T01:39:36.816Z,102816.72
2023-03-01T01:42:04.198Z,102806.28
2023-03-01T01:44:31.654Z,102810.66
2023-03-01T01:47:19.933Z,102807.06
2023-03-01T01:49:58.216Z,102809.66
2023-03-01T01:52:42.200Z,102804.38
2023-03-01T01:55:24.253Z,102806.84
2023-03-01T01:57:59.425Z,102799.50
2023-03-01T02:00:31.773Z,102802.78
2023-03-01T02:03:11.183Z,102798.38
2023-03-01T02:05:44.392Z,102789.72
2023-03-01T02:08:14.265Z,102788.69
2023-03-01T02:10:43.105Z,102786.00
2023-03-01T02:13:18.255Z,102782.41
2023-03-01T02:15:46.335Z,102785.53
2023-03-01T02:18:19.570Z,102784.63
2023-03-01T02:21:23.879Z,102774.28
2023-03-01T02:23:51.587Z,102782.81
2023-03-01T02:26:27.030Z,102769.78
2023-03-01T02:28:54.092Z,102775.75
2023-03-01T02:31:41.119Z,102767.88
2023-03-01T02:34:12.834Z,102767.75
2023-03-01T02:36:51.340Z,102770.19
2023-03-01T02:39:31.580Z,102766.72
2023-03-01T02:42:04.187Z,102769.19
2023-03-01T02:44:31.383Z,102774.16
2023-03-01T02:47:02.798Z,102773.25
2023-03-01T02:49:34.411Z,102777.53
2023-03-01T02:52:23.350Z,102778.31
2023-03-01T02:55:05.781Z,102784.38
2023-03-01T02:57:36.402Z,102782.44
2023-03-01T03:00:20.621Z,102784.22
2023-03-01T03:02:51.374Z,102779.97
2023-03-01T03:05:28.750Z,102773.88
2023-03-01T03:07:57.564Z,102773.13
2023-03-01T03:10:30.650Z,102771.97
2023-03-01T03:13:07.181Z,102774.69
2023-03-01T03:15:37.148Z,102766.81
2023-03-01T03:18:09.706Z,102771.09
2023-03-01T03:20:40.452Z,102763.88
2023-03-01T03:23:07.817Z,102768.91
2023-03-01T03:25:38.729Z,102764.53
2023-03-01T03:28:10.716Z,102774.88
2023-03-01T03:30:41.520Z,102767.78
2023-03-01T03:33:13.293Z,102767.78
2023-03-01T03:35:51.573Z,102767.69
2023-03-01T03:38:23.058Z,102767.31
2023-03-01T03:41:09.413Z,102768.09
2023-03-01T03:43:39.436Z,102768.78
2023-03-01T03:46:07.690Z,102766.19
2023-03-01T03:48:41.429Z,102766.19
2023-03-01T03:51:16.295Z,102766.09
2023-03-01T03:53:44.415Z,102758.19
2023-03-01T03:56:11.854Z,102760.00
2023-03-01T03:58:39.423Z,102767.78
2023-03-01T04:01:07.512Z,102765.94
2023-03-01T04:03:38.181Z,102753.00
2023-03-01T04:06:06.338Z,102761.56
2023-03-01T04:08:34.175Z,102743.34
2023-03-01T04:11:24.907Z,102756.16
2023-03-01T04:13:57.555Z,102744.81
2023-03-01T04:16:25.564Z,102741.06
2023-03-01T04:18:54.666Z,102736.69
2023-03-01T04:21:25.948Z,102740.84
2023-03-01T04:23:53.884Z,102738.16
2023-03-01T04:26:21.921Z,102738.03
2023-03-01T04:28:51.674Z,102739.56
2023-03-01T04:31:24.029Z,102735.97
2023-03-01T04:33:56.043Z,102731.59
2023-03-01T04:36:27.939Z,102729.69
2023-03-01T04:38:56.177Z,102728.78
2023-03-01T04:41:26.115Z,102726.84
2023-03-01T04:43:53.439Z,102725.94
2023-03-01T04:46:22.893Z,102717.19
2023-03-01T04:49:01.324Z,102704.16
2023-03-01T04:51:28.731Z,102706.75
2023-03-01T04:53:56.457Z,102701.47
2023-03-01T04:56:24.222Z,102703.91
2023-03-01T04:58:56.992Z,102708.16
2023-03-01T05:01:26.539Z,102702.78
2023-03-01T05:04:05.725Z,102704.47
2023-03-01T05:06:36.326Z,102713.09
2023-03-01T05:09:06.691Z,102713.22
2023-03-01T05:11:43.644Z,102713.22
2023-03-01T05:14:14.884Z,102719.16
2023-03-01T05:16:42.186Z,102708.84
2023-03-01T05:19:16.272Z,102713.22
2023-03-01T05:22:03.000Z,102704.47
2023-03-01T05:24:32.672Z,102699.97
2023-03-01T05:27:03.852Z,102698.28
2023-03-01T05:29:36.258Z,102698.91
2023-03-01T05:32:04.472Z,102688.47
2023-03-01T05:34:37.047Z,102686.66
2023-03-01T05:37:04.267Z,102678.69
2023-03-01T05:39:32.590Z,102689.03
2023-03-01T05:42:03.320Z,102673.28
2023-03-01T05:44:31.496Z,102676.00
2023-03-01T05:46:58.962Z,102680.28
2023-03-01T05:49:26.979Z,102674.97
2023-03-01T05:51:55.260Z,102677.53
2023-03-01T05:54:23.259Z,102677.31
2023-03-01T05:56:54.255Z,102684.28
2023-03-01T05:59:25.029Z,102679.78
2023-03-01T06:01:52.434Z,102663.91
2023-03-01T06:04:19.733Z,102662.13
2023-03-01T06:06:55.822Z,102665.25
2023-03-01T06:10:23.451Z,102663.47
2023-03-01T06:15:59.765Z,102672.41
2023-03-01T06:18:46.769Z,102669.03
2023-03-01T06:25:38.445Z,102670.84
2023-03-01T06:28:20.471Z,102673.19
2023-03-01T06:31:01.943Z,102674.44
2023-03-01T06:36:37.393Z,102680.75
2023-03-01T06:39:06.424Z,102681.66
2023-03-01T06:41:35.226Z,102678.63
2023-03-01T06:44:03.770Z,102684.16
2023-03-01T06:46:32.193Z,102684.28
2023-03-01T06:48:59.660Z,102684.50
2023-03-01T06:51:30.758Z,102680.50
2023-03-01T06:53:59.753Z,102683.97
2023-03-01T06:56:28.813Z,102677.50
2023-03-01T06:58:56.489Z,102671.78
2023-03-01T07:01:23.975Z,102671.09
2023-03-01T07:03:51.050Z,102665.63
2023-03-01T07:06:19.269Z,102660.94
2023-03-01T07:08:46.662Z,102663.09
2023-03-01T07:11:14.405Z,102665.22
2023-03-01T07:13:41.720Z,102678.63
2023-03-01T07:16:09.864Z,102680.63
2023-03-01T07:18:37.243Z,102681.91
2023-03-01T07:21:17.706Z,102693.72
2023-03-01T07:23:48.339Z,102688.00
2023-03-01T07:26:15.987Z,102693.63
2023-03-01T07:28:47.891Z,102694.19
2023-03-01T07:31:23.900Z,102692.88
2023-03-01T07:34:04.616Z,102697.81
2023-03-01T07:36:55.852Z,102686.78
2023-03-01T07:42:13.317Z,102689.50
2023-03-01T07:44:52.336Z,102695.25
2023-03-01T07:47:29.991Z,102700.84
2023-03-01T07:50:00.492Z,102689.16
2023-03-01T07:52:33.809Z,102694.91
2023-03-01T07:55:01.660Z,102690.28
2023-03-01T07:57:29.077Z,102699.34
2023-03-01T07:59:58.298Z,102700.72
2023-03-01T08:02:25.865Z,102699.56
2023-03-01T08:04:53.201Z,102695.63
2023-03-01T08:07:20.363Z,102702.81
2023-03-01T08:09:47.486Z,102692.78
2023-03-01T08:12:14.572Z,102696.03
2023-03-01T08:14:41.770Z,102684.63
2023-03-01T08:17:08.990Z,102692.03
2023-03-01T08:19:36.518Z,102683.09
2023-03-01T08:22:04.199Z,102689.00
2023-03-01T08:24:31.510Z,102684.38
2023-03-01T08:26:58.706Z,102690.06
2023-03-01T08:29:26.015Z,102687.22
2023-03-01T08:31:53.606Z,102692.22
2023-03-01T08:34:38.103Z,102681.56
2023-03-01T08:37:25.455Z,102688.25
2023-03-01T08:39:59.565Z,102678.63
2023-03-01T08:43:22.875Z,102685.41
2023-03-01T09:11:24.029Z,102658.44
2023-03-01T09:18:05.521Z,102655.34
2023-03-01T09:20:35.970Z,102656.69
2023-03-01T09:23:03.481Z,102665.78
2023-03-01T09:25:30.979Z,102656.72
2023-03-01T09:27:58.071Z,102652.81
2023-03-01T09:30:25.366Z,102654.16
2023-03-01T09:32:53.567Z,102648.59
2023-03-01T09:35:21.195Z,102652.47
2023-03-01T09:37:48.381Z,102657.22
2023-03-01T09:40:24.321Z,102653.47
2023-03-01T09:43:06.906Z,102641.69
2023-03-01T09:45:45.905Z,102636.13
2023-03-01T09:48:22.958Z,102639.94
2023-03-01T09:50:51.102Z,102626.47
2023-03-01T09:53:23.176Z,102630.50
2023-03-01T09:56:06.054Z,102612.69
2023-03-01T09:58:56.431Z,102624.28
2023-03-01T10:01:54.426Z,102617.78
2023-03-01T10:04:31.922Z,102614.72
2023-03-01T10:07:22.126Z,102602.25
2023-03-01T10:09:49.739Z,102612.13
2023-03-01T10:12:28.884Z,102608.22
2023-03-01T10:15:20.700Z,102604.13
2023-03-01T10:18:03.887Z,102603.38
2023-03-01T10:21:04.461Z,102608.03
2023-03-01T10:23:35.599Z,102599.59
2023-03-01T10:26:43.984Z,102584.16
2023-03-01T10:29:14.401Z,102573.94
2023-03-01T10:31:52.260Z,102568.19
2023-03-01T10:34:28.554Z,102559.88
2023-03-01T10:37:22.855Z,102561.16
2023-03-01T10:40:10.804Z,102575.34
2023-03-01T10:43:06.611Z,102569.63
2023-03-01T10:45:40.741Z,102562.84
2023-03-01T10:48:27.838Z,102559.66
2023-03-01T10:51:03.668Z,102571.28
2023-03-01T10:53:51.239Z,102562.91
2023-03-01T10:56:22.888Z,102560.69
2023-03-01T10:59:20.361Z,102572.28
2023-03-01T11:02:05.125Z,102555.19
2023-03-01T11:04:34.468Z,102559.94
2023-03-01T11:07:03.768Z,102568.88
2023-03-01T11:09:41.163Z,102567.41
2023-03-01T11:12:17.958Z,102561.53
2023-03-01T11:14:59.251Z,102561.91
2023-03-01T11:17:36.659Z,102562.34
2023-03-01T11:20:15.506Z,102577.38
2023-03-01T11:22:53.631Z,102562.53
2023-03-01T11:25:35.625Z,102559.09
2023-03-01T11:28:10.006Z,102558.47
2023-03-01T11:31:08.269Z,102557.78
2023-03-01T11:33:48.615Z,102549.28
2023-03-01T11:36:51.195Z,102554.56
2023-03-01T11:39:36.531Z,102552.09
2023-03-01T11:42:20.984Z,102543.59
2023-03-01T11:44:53.320Z,102546.25
2023-03-01T11:47:46.744Z,102548.25
2023-03-01T11:50:52.207Z,102528.31
2023-03-01T11:53:59.944Z,102541.47
2023-03-01T11:56:37.170Z,102531.19
2023-03-01T11:59:25.732Z,102535.75
2023-03-01T12:03:00.618Z,102531.47
2023-03-01T12:06:18.311Z,102518.63
2023-03-01T12:09:15.500Z,102510.97
2023-03-01T12:12:40.005Z,102505.91
2023-03-01T12:15:54.839Z,102510.34
2023-03-01T12:19:19.123Z,102509.47
2023-03-01T12:22:36.795Z,102504.34
2023-03-01T12:25:49.437Z,102508.75
2023-03-01T12:28:47.750Z,102490.59
2023-03-01T12:32:02.501Z,102500.47
2023-03-01T12:34:56.796Z,102491.00
2023-03-01T12:37:45.695Z,102491.19
2023-03-01T12:40:46.747Z,102478.31
2023-03-01T12:43:56.019Z,102483.66
2023-03-01T12:47:10.818Z,102475.75
2023-03-01T12:49:48.461Z,102464.50
2023-03-01T12:52:37.047Z,102467.28
2023-03-01T12:55:23.140Z,102450.81
2023-03-01T12:58:58.706Z,102451.00
2023-03-01T13:01:37.695Z,102451.06
2023-03-01T13:04:37.981Z,102449.34
2023-03-01T13:07:31.590Z,102452.06
2023-03-01T13:10:30.541Z,102454.81
2023-03-01T13:12:57.783Z,102441.81
2023-03-01T13:15:24.905Z,102431.41
2023-03-01T13:17:54.013Z,102428.78
2023-03-01T13:20:44.384Z,102426.28
2023-03-01T13:23:21.484Z,102427.13
2023-03-01T13:26:20.762Z,102414.03
2023-03-01T13:29:01.522Z,102414.97
2023-03-01T13:31:28.536Z,102411.66
2023-03-01T13:33:59.445Z,102403.09
2023-03-01T13:36:30.467Z,102394.53
2023-03-01T13:39:00.908Z,102392.81
2023-03-01T13:41:40.426Z,102385.97
2023-03-01T13:44:27.043Z,102379.00
2023-03-01T13:47:00.455Z,102375.53
2023-03-01T13:49:46.600Z,102374.78
2023-03-01T13:52:38.117Z,102367.94
2023-03-01T13:55:25.285Z,102374.06
2023-03-01T13:57:58.943Z,102367.94
2023-03-01T14:00:39.119Z,102374.91
2023-03-01T14:03:20.954Z,102355.75
2023-03-01T14:06:19.776Z,102358.41
2023-03-01T14:08:51.676Z,102366.25
2023-03-01T14:11:40.342Z,102352.22
2023-03-01T14:14:19.272Z,102346.94
2023-03-01T14:17:22.110Z,102346.09
2023-03-01T14:20:01.641Z,102336.47
2023-03-01T14:22:34.595Z,102341.72
2023-03-01T14:25:20.523Z,102335.72
2023-03-01T14:28:01.213Z,102337.56
2023-03-01T14:31:00.973Z,102341.06
2023-03-01T14:33:37.534Z,102343.72
2023-03-01T14:36:11.488Z,102343.72
2023-03-01T14:38:48.308Z,102336.81
2023-03-01T14:41:29.845Z,102337.75
2023-03-01T14:44:24.024Z,102341.25
2023-03-01T14:46:56.677Z,102323.81
2023-03-01T14:49:35.014Z,102321.16
2023-03-01T14:52:26.619Z,102316.81
2023-03-01T14:54:56.161Z,102308.91
2023-03-01T14:57:27.262Z,102301.09
2023-03-01T15:00:07.507Z,102299.47
2023-03-01T15:02:35.445Z,102301.00
2023-03-01T15:05:08.144Z,102296.59
2023-03-01T15:07:49.932Z,102295.75
2023-03-01T15:10:24.419Z,102293.97
2023-03-01T15:12:53.259Z,102288.75
2023-03-01T15:15:47.696Z,102297.50
2023-03-01T15:18:23.177Z,102290.41
2023-03-01T15:20:52.015Z,102293.94
2023-03-01T15:23:31.448Z,102292.06
2023-03-01T15:25:59.815Z,102280.72
2023-03-01T15:28:51.762Z,102286.72
2023-03-01T15:31:26.632Z,102278.78
2023-03-01T15:34:08.248Z,102287.50
2023-03-01T15:36:50.792Z,102288.41
2023-03-01T15:39:58.796Z,102291.78
2023-03-01T15:42:28.821Z,102288.16
2023-03-01T15:45:18.134Z,102286.34
2023-03-01T15:48:04.383Z,102286.16
2023-03-01T15:50:36.434Z,102280.66
2023-03-01T15:53:13.631Z,102280.63
2023-03-01T15:55:41.111Z,102284.06
2023-03-01T15:58:16.960Z,102283.06
2023-03-01T16:00:59.909Z,102274.19
2023-03-01T16:03:29.153Z,102266.19
2023-03-01T16:05:56.603Z,102280.09
2023-03-01T16:08:24.497Z,102275.63
2023-03-01T16:10:52.533Z,102275.53
2023-03-01T16:13:20.444Z,102263.22
2023-03-01T16:15:48.110Z,102262.25
2023-03-01T16:18:15.583Z,102260.34
2023-03-01T16:20:43.089Z,102254.28
2023-03-01T16:23:12.796Z,102247.59
2023-03-01T16:25:40.092Z,102240.97
2023-03-01T16:28:11.202Z,102241.25
2023-03-01T16:30:40.758Z,102236.19
2023-03-01T16:33:27.644Z,102248.31
2023-03-01T16:35:59.060Z,102243.03
2023-03-01T16:38:27.855Z,102240.19
2023-03-01T16:40:55.175Z,102255.47
2023-03-01T16:43:22.263Z,102238.53
2023-03-01T16:45:49.434Z,102243.28
2023-03-01T16:48:16.933Z,102247.22
2023-03-01T16:50:44.486Z,102242.50
2023-03-01T16:53:11.692Z,102254.44
2023-03-01T16:55:39.037Z,102245.31
2023-03-01T16:58:06.863Z,102252.91
2023-03-01T17:00:34.191Z,102250.91
2023-03-01T17:03:01.793Z,102250.50
2023-03-01T17:05:29.135Z,102255.44
2023-03-01T17:07:58.174Z,102254.22
2023-03-01T17:10:26.129Z,102255.66
2023-03-01T17:12:53.279Z,102250.09
2023-03-01T17:15:20.401Z,102250.78
2023-03-01T17:17:51.781Z,102246.06
2023-03-01T17:20:19.798Z,102254.47
2023-03-01T17:22:47.245Z,102251.50
2023-03-01T17:25:15.548Z,102250.31
2023-03-01T17:27:42.845Z,102247.44
2023-03-01T17:30:13.979Z,102258.41
2023-03-01T17:32:42.288Z,102254.63
2023-03-01T17:35:12.032Z,102255.28
2023-03-01T17:37:40.661Z,102254.09
2023-03-01T17:40:08.784Z,102263.41
2023-03-01T17:42:35.990Z,102253.59
2023-03-01T17:45:03.359Z,102262.09
2023-03-01T17:47:30.462Z,102262.78
2023-03-01T17:49:57.796Z,102268.53
2023-03-01T17:52:25.101Z,102271.09
2023-03-01T17:54:52.261Z,102273.63
2023-03-01T17:57:19.390Z,102269.06
2023-03-01T17:59:46.605Z,102274.09
2023-03-01T18:02:14.407Z,102264.25
2023-03-01T18:04:41.944Z,102273.63
2023-03-01T18:07:09.274Z,102269.91
2023-03-01T18:09:36.369Z,102270.66
2023-03-01T18:12:03.765Z,102268.72
2023-03-01T18:14:34.254Z,102276.41
2023-03-01T18:17:11.671Z,102277.88
2023-03-01T18:19:44.388Z,102281.06
2023-03-01T18:22:12.003Z,102276.41
2023-03-01T18:24:39.721Z,102283.91
2023-03-01T18:27:07.852Z,102281.06
2023-03-01T18:29:38.028Z,102284.47
2023-03-01T18:32:06.957Z,102280.78
2023-03-01T18:34:35.144Z,102280.59
2023-03-01T18:37:10.425Z,102264.84
2023-03-01T18:39:38.689Z,102265.59
2023-03-01T18:42:06.499Z,102261.97
2023-03-01T18:44:34.625Z,102256.50
2023-03-01T18:47:02.619Z,102259.81
2023-03-01T18:49:39.306Z,102257.06
2023-03-01T18:52:09.948Z,102253.50
2023-03-01T18:54:46.841Z,102250.91
2023-03-01T19:00:24.486Z,102239.28
2023-03-01T19:03:10.873Z,102240.03
2023-03-01T19:06:04.530Z,102236.34
2023-03-01T19:10:08.916Z,102233.53
2023-03-01T19:12:45.512Z,102238.56
2023-03-01T19:15:16.694Z,102235.06
2023-03-01T19:18:20.290Z,102239.44
2023-03-01T19:24:55.289Z,102250.28
2023-03-01T19:27:25.412Z,102250.13
2023-03-01T19:29:54.004Z,102247.28
2023-03-01T19:32:33.028Z,102246.31
2023-03-01T19:35:03.362Z,102241.94
2023-03-01T19:37:43.084Z,102234.94
2023-03-01T19:40:12.426Z,102242.81
2023-03-01T19:42:42.760Z,102239.41
2023-03-01T19:45:33.276Z,102243.78
2023-03-01T19:48:22.604Z,102249.81
2023-03-01T19:50:57.005Z,102242.69
2023-03-01T19:53:35.044Z,102249.41
2023-03-01T19:56:17.602Z,102258.78
2023-03-01T19:59:03.231Z,102250.72
2023-03-01T20:01:57.787Z,102252.44
2023-03-01T20:04:37.595Z,102252.19
2023-03-01T20:07:43.414Z,102256.31
2023-03-01T20:14:31.434Z,102248.72
2023-03-01T20:17:19.773Z,102254.53
2023-03-01T20:20:35.631Z,102250.00
2023-03-01T20:24:08.488Z,102245.44
2023-03-01T20:27:15.513Z,102246.91
2023-03-01T20:30:14.494Z,102241.53
2023-03-01T20:36:28.363Z,102237.47
2023-03-01T20:39:26.069Z,102240.78
2023-03-01T20:42:10.825Z,102233.81
2023-03-01T20:44:50.079Z,102231.09
2023-03-01T20:47:24.490Z,102243.28
2023-03-01T20:50:33.943Z,102239.91
2023-03-01T20:53:24.858Z,102238.00
2023-03-01T20:56:36.242Z,102230.94
2023-03-01T20:59:30.952Z,102227.38
2023-03-01T21:02:24.417Z,102227.38
2023-03-01T21:05:04.050Z,102231.69
2023-03-01T21:07:44.458Z,102228.00
2023-03-01T21:11:07.055Z,102232.31
2023-03-01T21:14:05.639Z,102226.06
2023-03-01T21:16:50.876Z,102225.88
2023-03-01T21:19:56.174Z,102234.47
2023-03-01T21:22:27.102Z,102226.69
2023-03-01T21:24:54.868Z,102229.13
2023-03-01T21:27:37.587Z,102214.44
2023-03-01T21:30:18.198Z,102204.94
2023-03-01T21:33:13.431Z,102202.25
2023-03-01T21:35:44.327Z,102203.88
2023-03-01T21:38:32.959Z,102194.19
2023-03-01T21:41:23.966Z,102194.38
2023-03-01T21:44:06.478Z,102193.31
2023-03-01T21:46:48.880Z,102197.59
2023-03-01T21:49:26.584Z,102197.44
2023-03-01T21:51:54.357Z,102194.84
2023-03-01T21:54:31.710Z,102201.66
2023-03-01T21:57:32.718Z,102198.06
2023-03-01T22:00:00.414Z,102201.41
2023-03-01T22:02:27.994Z,102209.94
2023-03-01T22:05:00.447Z,102201.13
2023-03-01T22:07:27.863Z,102199.25
2023-03-01T22:09:55.590Z,102207.88
2023-03-01T22:12:24.310Z,102207.72
2023-03-01T22:14:56.663Z,102203.13
2023-03-01T22:17:24.082Z,102201.28
2023-03-01T22:19:51.436Z,102203.78
2023-03-01T22:22:18.868Z,102213.19
2023-03-01T22:24:46.246Z,102211.38
2023-03-01T22:27:13.602Z,102211.22
2023-03-01T22:29:46.189Z,102215.53
2023-03-01T22:32:13.724Z,102223.16
2023-03-01T22:34:41.162Z,102221.16
2023-03-01T22:37:08.558Z,102229.75
2023-03-01T22:39:36.121Z,102231.38
2023-03-01T22:42:03.697Z,102218.31
2023-03-01T22:44:30.743Z,102234.78
2023-03-01T22:46:58.676Z,102230.28
2023-03-01T22:49:26.078Z,102224.22
2023-03-01T22:51:53.677Z,102224.94
2023-03-01T22:54:24.178Z,102229.25
2023-03-01T22:56:51.325Z,102224.78
2023-03-01T22:59:22.703Z,102222.19
2023-03-01T23:01:52.089Z,102222.06
2023-03-01T23:04:21.502Z,102224.78
2023-03-01T23:06:53.977Z,102222.97
2023-03-01T23:09:30.927Z,102216.88
2023-03-01T23:12:00.792Z,102225.38
2023-03-01T23:14:32.476Z,102221.00
2023-03-01T23:17:01.789Z,102216.53
2023-03-01T23:19:30.640Z,102218.25
2023-03-01T23:21:58.601Z,102224.13
2023-03-01T23:24:31.493Z,102215.19
2023-03-01T23:27:01.295Z,102219.38
2023-03-01T23:29:28.528Z,102219.13
2023-03-01T23:31:57.747Z,102222.44
2023-03-01T23:34:26.833Z,102214.31
2023-03-01T23:36:55.317Z,102211.41
2023-03-01T23:39:22.525Z,102213.03
2023-03-01T23:41:50.363Z,102210.34
2023-03-01T23:44:20.933Z,102207.75
2023-03-01T23:46:50.259Z,102201.69
2023-03-01T23:49:22.159Z,102190.34
2023-03-01T23:51:49.695Z,102203.31
2023-03-01T23:54:21.690Z,102193.09
2023-03-01T23:56:49.206Z,102193.81
2023-03-01T23:59:23.283Z,102205.78
